createdAt,value
2018-06-23T00:01:07.498Z,11.89
2018-06-23T00:03:37.002Z,11.85
2018-06-23T00:06:06.842Z,11.85
2018-06-23T00:08:36.442Z,11.83
2018-06-23T00:11:06.345Z,11.83
2018-06-23T00:13:36.021Z,11.82
2018-06-23T00:16:05.729Z,11.82
2018-06-23T00:18:35.145Z,11.82
2018-06-23T00:21:04.650Z,11.83
2018-06-23T00:23:34.075Z,11.80
2018-06-23T00:26:08.800Z,11.77
2018-06-23T00:28:38.277Z,11.75
2018-06-23T00:31:08.048Z,11.73
2018-06-23T00:33:38.171Z,11.72
2018-06-23T00:36:07.692Z,11.70
2018-06-23T00:38:37.190Z,11.69
2018-06-23T00:41:07.184Z,11.72
2018-06-23T00:43:36.563Z,11.68
2018-06-23T00:46:06.774Z,11.69
2018-06-23T00:48:36.393Z,11.68
2018-06-23T00:51:06.607Z,11.67
2018-06-23T00:53:36.120Z,11.69
2018-06-23T00:56:05.686Z,11.69
2018-06-23T00:58:46.911Z,11.73
2018-06-23T01:01:16.950Z,11.75
2018-06-23T01:03:47.488Z,11.77
2018-06-23T01:06:17.402Z,11.79
2018-06-23T01:08:46.827Z,11.83
2018-06-23T01:11:16.309Z,11.87
2018-06-23T01:13:46.197Z,11.93
2018-06-23T01:16:15.978Z,11.99
2018-06-23T01:18:45.787Z,12.05
2018-06-23T01:21:15.744Z,12.12
2018-06-23T01:23:45.312Z,12.19
2018-06-23T01:26:14.838Z,12.23
2018-06-23T01:28:44.403Z,12.28
2018-06-23T01:31:13.935Z,12.34
2018-06-23T01:33:43.552Z,12.41
2018-06-23T01:36:13.108Z,12.48
2018-06-23T01:38:42.618Z,12.54
2018-06-23T01:41:12.170Z,12.59
2018-06-23T01:43:41.849Z,12.66
2018-06-23T01:46:11.535Z,12.74
2018-06-23T01:48:41.545Z,12.80
2018-06-23T01:51:11.153Z,12.85
2018-06-23T01:53:40.656Z,12.89
2018-06-23T01:56:10.188Z,12.91
2018-06-23T01:58:39.669Z,12.96
2018-06-23T02:01:09.137Z,13.04
2018-06-23T02:03:38.582Z,13.10
2018-06-23T02:06:08.229Z,13.11
2018-06-23T02:08:37.691Z,13.16
2018-06-23T02:11:07.367Z,13.16
2018-06-23T02:13:37.232Z,13.20
2018-06-23T02:16:12.214Z,13.19
2018-06-23T02:18:46.940Z,13.22
2018-06-23T02:21:21.465Z,13.24
2018-06-23T02:23:56.442Z,13.23
2018-06-23T02:26:31.180Z,13.26
2018-06-23T02:29:05.897Z,13.26
2018-06-23T02:31:40.647Z,13.30
2018-06-23T02:34:15.435Z,13.27
2018-06-23T02:36:44.767Z,13.27
2018-06-23T02:39:14.157Z,13.24
2018-06-23T02:41:43.642Z,13.24
2018-06-23T02:44:13.026Z,13.25
2018-06-23T02:46:42.549Z,13.23
2018-06-23T02:49:12.669Z,13.25
2018-06-23T02:51:42.169Z,13.26
2018-06-23T02:54:11.885Z,13.23
2018-06-23T02:56:41.410Z,13.27
2018-06-23T02:59:10.996Z,13.27
2018-06-23T03:01:40.604Z,13.29
2018-06-23T03:04:10.228Z,13.32
2018-06-23T03:06:39.712Z,13.34
2018-06-23T03:09:09.335Z,13.41
2018-06-23T03:11:39.234Z,13.45
2018-06-23T03:14:08.760Z,13.48
2018-06-23T03:16:38.283Z,13.49
2018-06-23T03:19:08.293Z,13.52
2018-06-23T03:21:38.229Z,13.57
2018-06-23T03:24:07.871Z,13.58
2018-06-23T03:26:37.329Z,13.62
2018-06-23T03:29:06.794Z,13.64
2018-06-23T03:31:36.428Z,13.64
2018-06-23T03:34:06.042Z,13.69
2018-06-23T03:36:35.523Z,13.64
2018-06-23T03:39:08.099Z,13.64
2018-06-23T03:41:37.528Z,13.63
2018-06-23T03:44:07.027Z,13.61
2018-06-23T03:46:36.607Z,13.54
2018-06-23T03:49:05.999Z,13.52
2018-06-23T03:51:35.451Z,13.54
2018-06-23T03:54:04.909Z,13.55
2018-06-23T03:56:34.385Z,13.51
2018-06-23T03:59:03.872Z,13.45
2018-06-23T04:01:33.747Z,13.36
2018-06-23T04:04:03.091Z,13.49
2018-06-23T04:06:32.575Z,13.48
2018-06-23T04:09:01.868Z,13.55
2018-06-23T04:11:31.211Z,13.58
2018-06-23T04:14:00.411Z,13.56
2018-06-23T04:16:29.807Z,13.71
2018-06-23T04:18:59.618Z,13.70
2018-06-23T04:21:30.824Z,13.78
2018-06-23T04:24:00.658Z,13.79
2018-06-23T04:26:29.950Z,13.81
2018-06-23T04:28:59.503Z,13.85
2018-06-23T04:31:28.857Z,13.95
2018-06-23T04:33:58.142Z,13.86
2018-06-23T04:36:27.907Z,13.95
2018-06-23T04:38:57.315Z,13.95
2018-06-23T04:41:26.827Z,13.94
2018-06-23T04:43:56.604Z,13.97
2018-06-23T04:46:25.942Z,14.00
2018-06-23T04:48:55.371Z,14.06
2018-06-23T04:51:24.765Z,14.09
2018-06-23T04:53:54.024Z,14.07
2018-06-23T04:56:23.392Z,14.10
2018-06-23T04:58:52.642Z,14.06
2018-06-23T05:01:21.986Z,14.06
2018-06-23T05:03:51.414Z,14.04
2018-06-23T05:06:20.772Z,14.06
2018-06-23T05:08:50.087Z,14.13
2018-06-23T05:11:19.595Z,14.14
2018-06-23T05:13:49.356Z,14.22
2018-06-23T05:16:18.696Z,14.18
2018-06-23T05:18:47.970Z,14.12
2018-06-23T05:21:17.537Z,14.09
2018-06-23T05:23:46.916Z,14.09
2018-06-23T05:26:16.321Z,14.16
2018-06-23T05:28:46.053Z,14.22
2018-06-23T05:31:15.539Z,14.27
2018-06-23T05:33:46.108Z,14.29
2018-06-23T05:36:15.950Z,14.29
2018-06-23T05:38:45.400Z,14.18
2018-06-23T05:41:14.906Z,14.31
2018-06-23T05:43:44.509Z,14.42
2018-06-23T05:46:15.071Z,14.36
2018-06-23T05:48:44.578Z,14.25
2018-06-23T05:51:14.723Z,14.40
2018-06-23T05:53:44.046Z,14.50
2018-06-23T05:56:13.628Z,14.43
2018-06-23T05:58:43.330Z,14.23
2018-06-23T06:01:12.838Z,14.29
2018-06-23T06:03:42.315Z,14.33
2018-06-23T06:06:12.187Z,14.40
2018-06-23T06:08:41.690Z,14.43
2018-06-23T06:11:11.206Z,14.64
2018-06-23T06:13:40.820Z,14.85
2018-06-23T06:16:10.316Z,14.85
2018-06-23T06:18:40.041Z,14.83
2018-06-23T06:21:09.752Z,14.84
2018-06-23T06:23:39.199Z,14.84
2018-06-23T06:26:08.709Z,14.84
2018-06-23T06:28:38.189Z,14.94
2018-06-23T06:31:07.769Z,14.97
2018-06-23T06:33:37.283Z,15.16
2018-06-23T06:36:07.247Z,15.23
2018-06-23T06:38:36.921Z,15.29
2018-06-23T06:41:06.620Z,15.23
2018-06-23T06:43:36.342Z,15.22
2018-06-23T06:46:06.155Z,15.22
2018-06-23T06:48:35.871Z,15.13
2018-06-23T06:51:05.540Z,15.33
2018-06-23T06:53:35.457Z,15.55
2018-06-23T06:56:05.111Z,15.67
2018-06-23T06:58:34.691Z,15.61
2018-06-23T07:01:04.079Z,15.64
2018-06-23T07:03:33.429Z,15.63
2018-06-23T07:06:05.262Z,15.62
2018-06-23T07:08:34.657Z,15.77
2018-06-23T07:11:04.243Z,15.96
2018-06-23T07:13:33.988Z,15.84
2018-06-23T07:16:03.356Z,15.95
2018-06-23T07:18:32.672Z,15.87
2018-06-23T07:21:02.055Z,15.86
2018-06-23T07:23:31.457Z,15.76
2018-06-23T07:26:00.655Z,15.61
2018-06-23T07:28:30.084Z,15.66
2018-06-23T07:30:59.461Z,15.68
2018-06-23T07:33:29.002Z,15.67
2018-06-23T07:35:58.260Z,15.87
2018-06-23T07:38:27.595Z,16.19
2018-06-23T07:40:56.822Z,16.38
2018-06-23T07:43:26.329Z,16.52
2018-06-23T07:45:55.725Z,16.56
2018-06-23T07:48:25.093Z,16.78
2018-06-23T07:50:54.605Z,16.92
2018-06-23T07:53:23.875Z,16.47
2018-06-23T07:55:53.179Z,16.53
2018-06-23T07:58:22.538Z,16.51
2018-06-23T08:00:51.825Z,16.84
2018-06-23T08:03:21.391Z,17.06
2018-06-23T08:05:50.748Z,17.14
2018-06-23T08:08:20.240Z,17.26
2018-06-23T08:10:49.751Z,17.27
2018-06-23T08:13:19.725Z,17.03
2018-06-23T08:15:49.263Z,16.94
2018-06-23T08:18:18.798Z,16.80
2018-06-23T08:20:48.681Z,16.61
2018-06-23T08:23:18.193Z,16.39
2018-06-23T08:25:47.812Z,16.28
2018-06-23T08:28:17.476Z,16.32
2018-06-23T08:30:47.096Z,16.45
2018-06-23T08:33:16.589Z,16.45
2018-06-23T08:35:46.139Z,16.80
2018-06-23T08:38:15.642Z,16.73
2018-06-23T08:40:45.120Z,16.99
2018-06-23T08:43:14.621Z,16.85
2018-06-23T08:45:44.167Z,16.47
2018-06-23T08:48:13.747Z,16.12
2018-06-23T08:50:43.407Z,16.13
2018-06-23T08:53:12.884Z,16.29
2018-06-23T08:55:43.070Z,16.37
2018-06-23T08:58:13.070Z,16.15
2018-06-23T09:00:42.994Z,15.84
2018-06-23T09:03:12.724Z,15.91
2018-06-23T09:05:42.435Z,15.71
2018-06-23T09:08:12.363Z,15.56
2018-06-23T09:10:42.236Z,15.63
2018-06-23T09:13:11.867Z,15.62
2018-06-23T09:15:41.500Z,15.46
2018-06-23T09:18:11.624Z,15.54
2018-06-23T09:20:41.190Z,15.87
2018-06-23T09:23:10.727Z,16.10
2018-06-23T09:25:40.385Z,15.86
2018-06-23T09:28:10.329Z,15.88
2018-06-23T09:30:39.753Z,15.57
2018-06-23T09:33:09.437Z,15.49
2018-06-23T09:35:39.018Z,15.66
2018-06-23T09:38:08.572Z,15.86
2018-06-23T09:40:38.696Z,16.12
2018-06-23T09:43:08.618Z,16.59
2018-06-23T09:45:38.297Z,16.71
2018-06-23T09:48:08.385Z,16.86
2018-06-23T09:50:38.013Z,16.81
2018-06-23T09:53:07.837Z,16.73
2018-06-23T09:55:38.081Z,16.62
2018-06-23T09:58:07.655Z,16.51
2018-06-23T10:00:37.546Z,16.32
2018-06-23T10:03:08.020Z,16.43
2018-06-23T10:05:37.646Z,16.50
2018-06-23T10:08:07.602Z,16.67
2018-06-23T10:10:37.227Z,16.65
2018-06-23T10:13:07.167Z,16.62
2018-06-23T10:15:37.365Z,16.69
2018-06-23T10:18:07.238Z,16.57
2018-06-23T10:20:37.931Z,16.53
2018-06-23T10:23:07.606Z,16.53
2018-06-23T10:25:37.307Z,16.54
2018-06-23T10:28:07.287Z,16.76
2018-06-23T10:30:39.322Z,16.99
2018-06-23T10:33:09.218Z,17.02
2018-06-23T10:35:40.175Z,17.35
2018-06-23T10:38:09.816Z,17.28
2018-06-23T10:40:40.129Z,17.32
2018-06-23T10:43:10.199Z,17.46
2018-06-23T10:45:40.153Z,17.68
2018-06-23T10:48:10.464Z,18.08
2018-06-23T10:50:40.307Z,18.53
2018-06-23T10:53:10.017Z,17.93
2018-06-23T10:55:39.963Z,17.35
2018-06-23T10:58:09.502Z,17.18
2018-06-23T11:00:39.119Z,16.86
2018-06-23T11:03:09.512Z,16.58
2018-06-23T11:05:39.368Z,16.40
2018-06-23T11:08:10.103Z,16.29
2018-06-23T11:10:40.070Z,16.29
2018-06-23T11:13:10.088Z,16.37
2018-06-23T11:15:40.324Z,16.40
2018-06-23T11:18:15.992Z,16.59
2018-06-23T11:20:45.960Z,16.62
2018-06-23T11:23:16.174Z,16.66
2018-06-23T11:25:46.007Z,16.77
2018-06-23T11:28:15.864Z,17.03
2018-06-23T11:30:45.345Z,16.91
2018-06-23T11:33:14.953Z,16.92
2018-06-23T11:35:44.892Z,16.78
2018-06-23T11:38:14.575Z,16.69
2018-06-23T11:40:44.105Z,16.57
2018-06-23T11:43:14.020Z,16.55
2018-06-23T11:45:43.632Z,16.36
2018-06-23T11:48:13.410Z,16.46
2018-06-23T11:50:43.228Z,16.33
2018-06-23T11:53:12.911Z,16.37
2018-06-23T11:55:42.736Z,16.48
2018-06-23T11:58:12.658Z,16.43
2018-06-23T12:00:42.982Z,16.42
2018-06-23T12:03:12.805Z,16.57
2018-06-23T12:05:42.329Z,16.44
2018-06-23T12:08:12.225Z,16.18
2018-06-23T12:10:42.046Z,15.99
2018-06-23T12:13:11.916Z,15.84
2018-06-23T12:15:41.952Z,15.95
2018-06-23T12:18:11.970Z,15.99
2018-06-23T12:20:41.621Z,16.19
2018-06-23T12:23:11.221Z,16.14
2018-06-23T12:25:41.317Z,16.19
2018-06-23T12:28:10.975Z,16.24
2018-06-23T12:30:40.905Z,16.27
2018-06-23T12:33:10.683Z,16.35
2018-06-23T12:35:41.281Z,16.43
2018-06-23T12:38:10.990Z,16.35
2018-06-23T12:40:41.005Z,16.41
2018-06-23T12:43:11.034Z,16.15
2018-06-23T12:45:41.308Z,16.10
2018-06-23T12:48:11.243Z,16.02
2018-06-23T12:50:41.247Z,15.83
2018-06-23T12:53:10.820Z,15.93
2018-06-23T12:55:40.953Z,16.18
2018-06-23T12:58:10.500Z,16.49
2018-06-23T13:00:40.143Z,16.56
2018-06-23T13:03:09.942Z,16.56
2018-06-23T13:05:39.637Z,16.43
2018-06-23T13:08:09.443Z,16.44
2018-06-23T13:10:39.525Z,16.38
2018-06-23T13:13:09.401Z,16.40
2018-06-23T13:15:39.209Z,16.39
2018-06-23T13:18:10.696Z,16.43
2018-06-23T13:20:41.031Z,16.17
2018-06-23T13:23:11.375Z,16.07
2018-06-23T13:25:41.039Z,16.07
2018-06-23T13:28:10.573Z,16.15
2018-06-23T13:30:40.466Z,16.28
2018-06-23T13:33:10.278Z,16.36
2018-06-23T13:35:39.960Z,16.44
2018-06-23T13:38:09.940Z,16.58
2018-06-23T13:40:39.924Z,16.52
2018-06-23T13:43:09.805Z,16.30
2018-06-23T13:45:39.644Z,15.94
2018-06-23T13:48:10.527Z,15.71
2018-06-23T13:50:40.578Z,15.63
2018-06-23T13:53:10.056Z,15.65
2018-06-23T13:55:40.102Z,15.88
2018-06-23T13:58:09.901Z,15.88
2018-06-23T14:00:39.723Z,15.76
2018-06-23T14:03:09.946Z,15.45
2018-06-23T14:05:39.589Z,15.38
2018-06-23T14:08:09.418Z,15.35
2018-06-23T14:10:39.052Z,15.30
2018-06-23T14:13:08.813Z,15.26
2018-06-23T14:15:38.518Z,15.29
2018-06-23T14:18:08.343Z,15.32
2018-06-23T14:20:37.915Z,15.28
2018-06-23T14:23:08.401Z,15.33
2018-06-23T14:25:38.014Z,15.44
2018-06-23T14:28:09.084Z,15.44
2018-06-23T14:30:38.694Z,15.58
2018-06-23T14:33:08.603Z,15.66
2018-06-23T14:35:38.276Z,15.75
2018-06-23T14:38:08.073Z,15.73
2018-06-23T14:40:37.687Z,15.52
2018-06-23T14:43:08.778Z,15.43
2018-06-23T14:45:38.351Z,15.38
2018-06-23T14:48:08.564Z,15.44
2018-06-23T14:50:38.177Z,15.56
2018-06-23T14:53:11.929Z,15.59
2018-06-23T14:55:46.152Z,15.68
2018-06-23T14:58:16.055Z,15.63
2018-06-23T15:00:45.652Z,15.50
2018-06-23T15:03:15.868Z,15.58
2018-06-23T15:05:45.786Z,15.56
2018-06-23T15:10:31.500Z,15.60
2018-06-23T15:13:14.538Z,15.63
2018-06-23T15:15:43.977Z,15.59
2018-06-23T15:18:13.730Z,15.72
2018-06-23T15:20:43.699Z,15.80
2018-06-23T15:23:13.377Z,15.80
2018-06-23T15:25:43.088Z,15.96
2018-06-23T15:28:12.751Z,15.96
2018-06-23T15:30:42.334Z,15.89
2018-06-23T15:33:11.889Z,15.90
2018-06-23T15:35:41.701Z,15.88
2018-06-23T15:38:11.394Z,15.82
2018-06-23T15:40:40.948Z,15.80
2018-06-23T15:43:10.677Z,15.79
2018-06-23T15:45:40.296Z,15.76
2018-06-23T15:48:09.799Z,15.68
2018-06-23T15:50:39.547Z,15.53
2018-06-23T15:53:09.192Z,15.54
2018-06-23T15:55:39.234Z,15.58
2018-06-23T15:58:08.882Z,15.53
2018-06-23T16:00:38.487Z,15.46
2018-06-23T16:03:08.311Z,15.51
2018-06-23T16:05:38.023Z,15.57
2018-06-23T16:08:07.564Z,15.51
2018-06-23T16:10:37.392Z,15.48
2018-06-23T16:13:07.019Z,15.42
2018-06-23T16:15:37.014Z,15.28
2018-06-23T16:18:07.171Z,15.11
2018-06-23T16:20:37.986Z,15.16
2018-06-23T16:23:07.857Z,15.10
2018-06-23T16:25:38.172Z,14.99
2018-06-23T16:28:08.397Z,14.90
2018-06-23T16:30:38.233Z,14.77
2018-06-23T16:33:08.154Z,14.75
2018-06-23T16:35:37.814Z,14.78
2018-06-23T16:38:08.613Z,14.89
2018-06-23T16:40:38.571Z,14.91
2018-06-23T16:43:08.365Z,14.90
2018-06-23T16:45:37.823Z,14.82
2018-06-23T16:48:07.592Z,14.80
2018-06-23T16:50:37.613Z,14.86
2018-06-23T16:53:07.423Z,14.97
2018-06-23T16:55:37.880Z,15.00
2018-06-23T16:58:07.969Z,14.93
2018-06-23T17:00:37.655Z,14.84
2018-06-23T17:03:08.127Z,14.83
2018-06-23T17:05:37.983Z,14.78
2018-06-23T17:08:08.305Z,14.78
2018-06-23T17:10:41.694Z,14.83
2018-06-23T17:13:15.054Z,14.73
2018-06-23T17:15:46.984Z,14.55
2018-06-23T17:18:19.284Z,14.49
2018-06-23T17:20:50.242Z,14.37
2018-06-23T17:23:19.844Z,14.34
2018-06-23T17:25:49.219Z,14.37
2018-06-23T17:28:18.485Z,14.37
2018-06-23T17:30:47.731Z,14.36
2018-06-23T17:33:17.205Z,14.38
2018-06-23T17:35:46.773Z,14.50
2018-06-23T17:38:16.326Z,14.51
2018-06-23T17:40:45.731Z,14.50
2018-06-23T17:43:15.473Z,14.41
2018-06-23T17:45:45.151Z,14.50
2018-06-23T17:48:14.839Z,14.54
2018-06-23T17:50:44.729Z,14.49
2018-06-23T17:53:14.736Z,14.48
2018-06-23T17:55:44.561Z,14.49
2018-06-23T17:58:14.102Z,14.54
2018-06-23T18:00:43.561Z,14.57
2018-06-23T18:03:13.543Z,14.58
2018-06-23T18:05:43.134Z,14.54
2018-06-23T18:08:12.624Z,14.55
2018-06-23T18:10:42.398Z,14.49
2018-06-23T18:13:12.108Z,14.56
2018-06-23T18:15:42.191Z,14.46
2018-06-23T18:18:12.113Z,14.38
2018-06-23T18:20:41.723Z,14.23
2018-06-23T18:23:11.330Z,14.23
2018-06-23T18:25:41.562Z,14.24
2018-06-23T18:28:11.611Z,14.24
2018-06-23T18:30:41.176Z,14.22
2018-06-23T18:33:11.447Z,14.20
2018-06-23T18:35:41.495Z,14.08
2018-06-23T18:38:10.949Z,14.07
2018-06-23T18:40:40.795Z,14.07
2018-06-23T18:43:10.170Z,14.04
2018-06-23T18:45:39.777Z,14.05
2018-06-23T18:48:09.506Z,14.06
2018-06-23T18:50:39.122Z,14.07
2018-06-23T18:53:08.950Z,14.08
2018-06-23T18:55:38.896Z,14.05
2018-06-23T18:58:08.449Z,14.11
2018-06-23T19:00:38.885Z,14.13
2018-06-23T19:03:08.478Z,14.11
2018-06-23T19:05:38.228Z,14.11
2018-06-23T19:08:08.129Z,14.12
2018-06-23T19:10:37.692Z,14.10
2018-06-23T19:13:07.344Z,14.15
2018-06-23T19:15:37.292Z,14.06
2018-06-23T19:18:08.273Z,14.08
2018-06-23T19:20:38.030Z,14.05
2018-06-23T19:23:07.636Z,14.05
2018-06-23T19:25:37.034Z,14.08
2018-06-23T19:28:06.540Z,14.12
2018-06-23T19:30:36.453Z,14.00
2018-06-23T19:33:06.151Z,13.99
2018-06-23T19:35:35.616Z,13.98
2018-06-23T19:38:05.443Z,13.90
2018-06-23T19:40:35.265Z,13.84
2018-06-23T19:43:04.810Z,13.86
2018-06-23T19:45:34.457Z,13.89
2018-06-23T19:48:04.459Z,13.92
2018-06-23T19:50:34.114Z,13.96
2018-06-23T19:53:03.803Z,13.91
2018-06-23T19:55:33.649Z,13.93
